sensor_id;sensor_type;location;lat;lon;timestamp;P1;durP1;ratioP1;P2;durP2;ratioP2
63983;SDS011;50182;47.964;24.022;2022-07-18T00:00:38;1.94;;;1.84;;
63983;SDS011;50182;47.964;24.022;2022-07-18T00:01:42;5.85;;;1.87;;
63983;SDS011;50182;47.964;24.022;2022-07-18T00:02:44;5.01;;;1.81;;
63983;SDS011;50182;47.964;24.022;2022-07-18T00:03:47;1.80;;;1.61;;
63983;SDS011;50182;47.964;24.022;2022-07-18T00:04:49;1.76;;;1.71;;
63983;SDS011;50182;47.964;24.022;2022-07-18T00:05:51;2.43;;;1.82;;
63983;SDS011;50182;47.964;24.022;2022-07-18T00:06:54;5.85;;;1.93;;
63983;SDS011;50182;47.964;24.022;2022-07-18T00:07:57;1.47;;;1.37;;
63983;SDS011;50182;47.964;24.022;2022-07-18T00:08:59;1.88;;;1.78;;
63983;SDS011;50182;47.964;24.022;2022-07-18T00:10:01;2.05;;;1.78;;
63983;SDS011;50182;47.964;24.022;2022-07-18T00:11:04;3.59;;;1.89;;
63983;SDS011;50182;47.964;24.022;2022-07-18T00:12:07;2.95;;;1.78;;
63983;SDS011;50182;47.964;24.022;2022-07-18T00:13:10;1.72;;;1.58;;
63983;SDS011;50182;47.964;24.022;2022-07-18T00:14:13;1.99;;;1.89;;
63983;SDS011;50182;47.964;24.022;2022-07-18T00:15:15;1.85;;;1.55;;
63983;SDS011;50182;47.964;24.022;2022-07-18T00:16:19;5.23;;;2.42;;
63983;SDS011;50182;47.964;24.022;2022-07-18T00:17:22;1.71;;;1.45;;
63983;SDS011;50182;47.964;24.022;2022-07-18T00:18:24;1.53;;;1.47;;
63983;SDS011;50182;47.964;24.022;2022-07-18T00:19:27;1.46;;;1.37;;
63983;SDS011;50182;47.964;24.022;2022-07-18T00:20:31;3.14;;;1.52;;
63983;SDS011;50182;47.964;24.022;2022-07-18T00:21:34;4.11;;;1.55;;
63983;SDS011;50182;47.964;24.022;2022-07-18T00:22:38;1.79;;;1.69;;
63983;SDS011;50182;47.964;24.022;2022-07-18T00:23:41;1.50;;;1.35;;
63983;SDS011;50182;47.964;24.022;2022-07-18T00:24:44;4.87;;;1.51;;
63983;SDS011;50182;47.964;24.022;2022-07-18T00:25:46;1.23;;;1.23;;
63983;SDS011;50182;47.964;24.022;2022-07-18T00:26:49;1.19;;;1.16;;
63983;SDS011;50182;47.964;24.022;2022-07-18T00:27:52;0.97;;;0.97;;
63983;SDS011;50182;47.964;24.022;2022-07-18T00:28:54;3.57;;;1.39;;
63983;SDS011;50182;47.964;24.022;2022-07-18T00:29:56;1.50;;;1.47;;
63983;SDS011;50182;47.964;24.022;2022-07-18T00:30:59;1.51;;;1.39;;
63983;SDS011;50182;47.964;24.022;2022-07-18T00:32:01;1.77;;;1.19;;
63983;SDS011;50182;47.964;24.022;2022-07-18T00:33:05;1.33;;;1.26;;
63983;SDS011;50182;47.964;24.022;2022-07-18T00:34:07;1.40;;;1.30;;
63983;SDS011;50182;47.964;24.022;2022-07-18T00:35:09;1.05;;;1.05;;
63983;SDS011;50182;47.964;24.022;2022-07-18T00:36:12;1.17;;;1.14;;
63983;SDS011;50182;47.964;24.022;2022-07-18T00:37:15;1.08;;;0.94;;
63983;SDS011;50182;47.964;24.022;2022-07-18T00:38:17;1.47;;;1.28;;
63983;SDS011;50182;47.964;24.022;2022-07-18T00:39:19;1.15;;;1.04;;
63983;SDS011;50182;47.964;24.022;2022-07-18T00:40:23;2.72;;;2.16;;
63983;SDS011;50182;47.964;24.022;2022-07-18T00:41:26;1.24;;;0.96;;
63983;SDS011;50182;47.964;24.022;2022-07-18T00:42:30;1.61;;;1.11;;
63983;SDS011;50182;47.964;24.022;2022-07-18T00:43:33;1.31;;;1.15;;
63983;SDS011;50182;47.964;24.022;2022-07-18T00:44:35;1.33;;;1.21;;
63983;SDS011;50182;47.964;24.022;2022-07-18T00:45:38;1.33;;;1.25;;
63983;SDS011;50182;47.964;24.022;2022-07-18T00:46:41;1.67;;;1.57;;
63983;SDS011;50182;47.964;24.022;2022-07-18T00:47:43;1.51;;;1.45;;
63983;SDS011;50182;47.964;24.022;2022-07-18T00:48:46;1.41;;;1.32;;
63983;SDS011;50182;47.964;24.022;2022-07-18T00:49:48;3.59;;;1.71;;
63983;SDS011;50182;47.964;24.022;2022-07-18T00:50:51;3.27;;;1.15;;
63983;SDS011;50182;47.964;24.022;2022-07-18T00:51:53;1.22;;;1.11;;
63983;SDS011;50182;47.964;24.022;2022-07-18T00:53:02;3.54;;;1.05;;
63983;SDS011;50182;47.964;24.022;2022-07-18T00:54:02;1.82;;;1.27;;
63983;SDS011;50182;47.964;24.022;2022-07-18T00:55:04;1.27;;;1.17;;
63983;SDS011;50182;47.964;24.022;2022-07-18T00:56:08;1.17;;;1.14;;
63983;SDS011;50182;47.964;24.022;2022-07-18T00:57:11;5.11;;;1.56;;
63983;SDS011;50182;47.964;24.022;2022-07-18T00:58:14;1.17;;;1.02;;
63983;SDS011;50182;47.964;24.022;2022-07-18T00:59:17;1.58;;;1.35;;
63983;SDS011;50182;47.964;24.022;2022-07-18T01:00:22;3.48;;;1.38;;
63983;SDS011;50182;47.964;24.022;2022-07-18T01:01:24;2.64;;;1.59;;
63983;SDS011;50182;47.964;24.022;2022-07-18T01:02:26;1.40;;;1.19;;
63983;SDS011;50182;47.964;24.022;2022-07-18T01:03:29;1.68;;;1.10;;
63983;SDS011;50182;47.964;24.022;2022-07-18T01:04:31;1.57;;;1.41;;
63983;SDS011;50182;47.964;24.022;2022-07-18T01:05:34;1.13;;;1.07;;
63983;SDS011;50182;47.964;24.022;2022-07-18T01:06:37;1.31;;;1.29;;
63983;SDS011;50182;47.964;24.022;2022-07-18T01:07:40;1.67;;;1.27;;
63983;SDS011;50182;47.964;24.022;2022-07-18T01:08:43;1.30;;;1.28;;
63983;SDS011;50182;47.964;24.022;2022-07-18T01:09:46;1.39;;;1.38;;
63983;SDS011;50182;47.964;24.022;2022-07-18T01:10:48;1.35;;;1.25;;
63983;SDS011;50182;47.964;24.022;2022-07-18T01:11:51;1.40;;;1.26;;
63983;SDS011;50182;47.964;24.022;2022-07-18T01:12:53;1.17;;;1.06;;
63983;SDS011;50182;47.964;24.022;2022-07-18T01:13:56;1.05;;;1.05;;
63983;SDS011;50182;47.964;24.022;2022-07-18T01:14:59;1.75;;;1.21;;
63983;SDS011;50182;47.964;24.022;2022-07-18T01:16:01;1.99;;;1.21;;
63983;SDS011;50182;47.964;24.022;2022-07-18T01:17:11;2.48;;;2.07;;
63983;SDS011;50182;47.964;24.022;2022-07-18T01:18:15;2.10;;;1.00;;
63983;SDS011;50182;47.964;24.022;2022-07-18T01:19:17;1.18;;;1.11;;
63983;SDS011;50182;47.964;24.022;2022-07-18T01:20:20;1.59;;;1.49;;
63983;SDS011;50182;47.964;24.022;2022-07-18T01:21:24;8.26;;;1.31;;
63983;SDS011;50182;47.964;24.022;2022-07-18T01:22:31;1.80;;;1.54;;
63983;SDS011;50182;47.964;24.022;2022-07-18T01:23:31;3.32;;;1.05;;
63983;SDS011;50182;47.964;24.022;2022-07-18T01:24:34;7.23;;;1.56;;
63983;SDS011;50182;47.964;24.022;2022-07-18T01:25:36;1.59;;;1.55;;
63983;SDS011;50182;47.964;24.022;2022-07-18T01:26:39;1.31;;;1.25;;
63983;SDS011;50182;47.964;24.022;2022-07-18T01:27:42;1.56;;;1.21;;
63983;SDS011;50182;47.964;24.022;2022-07-18T01:28:45;2.36;;;1.17;;
63983;SDS011;50182;47.964;24.022;2022-07-18T01:29:48;1.96;;;1.07;;
63983;SDS011;50182;47.964;24.022;2022-07-18T01:30:52;3.76;;;1.20;;
63983;SDS011;50182;47.964;24.022;2022-07-18T01:31:55;2.95;;;0.89;;
63983;SDS011;50182;47.964;24.022;2022-07-18T01:32:57;9.41;;;1.18;;
63983;SDS011;50182;47.964;24.022;2022-07-18T01:34:01;1.69;;;1.59;;
63983;SDS011;50182;47.964;24.022;2022-07-18T01:35:04;1.15;;;1.10;;
63983;SDS011;50182;47.964;24.022;2022-07-18T01:36:08;2.38;;;1.29;;
63983;SDS011;50182;47.964;24.022;2022-07-18T01:37:10;3.41;;;1.47;;
63983;SDS011;50182;47.964;24.022;2022-07-18T01:38:13;1.02;;;1.02;;
63983;SDS011;50182;47.964;24.022;2022-07-18T01:39:16;2.86;;;1.36;;
63983;SDS011;50182;47.964;24.022;2022-07-18T01:40:19;3.84;;;1.82;;
63983;SDS011;50182;47.964;24.022;2022-07-18T01:41:22;1.11;;;1.11;;
63983;SDS011;50182;47.964;24.022;2022-07-18T01:42:24;2.86;;;1.09;;
63983;SDS011;50182;47.964;24.022;2022-07-18T01:43:27;1.83;;;0.91;;
63983;SDS011;50182;47.964;24.022;2022-07-18T01:44:29;1.36;;;1.24;;
63983;SDS011;50182;47.964;24.022;2022-07-18T01:45:33;1.25;;;1.12;;
63983;SDS011;50182;47.964;24.022;2022-07-18T01:46:36;6.09;;;1.50;;
63983;SDS011;50182;47.964;24.022;2022-07-18T01:47:38;1.57;;;1.47;;
63983;SDS011;50182;47.964;24.022;2022-07-18T01:48:41;2.24;;;0.88;;
63983;SDS011;50182;47.964;24.022;2022-07-18T01:49:43;1.05;;;1.05;;
63983;SDS011;50182;47.964;24.022;2022-07-18T01:50:46;2.39;;;1.17;;
63983;SDS011;50182;47.964;24.022;2022-07-18T01:51:50;2.67;;;1.71;;
63983;SDS011;50182;47.964;24.022;2022-07-18T01:52:53;1.06;;;0.94;;
63983;SDS011;50182;47.964;24.022;2022-07-18T01:53:56;1.54;;;0.91;;
63983;SDS011;50182;47.964;24.022;2022-07-18T01:54:59;1.84;;;0.91;;
63983;SDS011;50182;47.964;24.022;2022-07-18T01:56:02;1.61;;;1.56;;
63983;SDS011;50182;47.964;24.022;2022-07-18T01:57:05;1.26;;;1.19;;
63983;SDS011;50182;47.964;24.022;2022-07-18T01:58:08;2.32;;;0.89;;
63983;SDS011;50182;47.964;24.022;2022-07-18T01:59:11;1.25;;;1.25;;
63983;SDS011;50182;47.964;24.022;2022-07-18T02:00:14;1.47;;;1.37;;
63983;SDS011;50182;47.964;24.022;2022-07-18T02:01:16;3.32;;;1.31;;
63983;SDS011;50182;47.964;24.022;2022-07-18T02:02:18;1.64;;;1.34;;
63983;SDS011;50182;47.964;24.022;2022-07-18T02:03:21;2.45;;;1.17;;
63983;SDS011;50182;47.964;24.022;2022-07-18T02:04:23;1.87;;;1.77;;
63983;SDS011;50182;47.964;24.022;2022-07-18T02:05:26;1.00;;;1.00;;
63983;SDS011;50182;47.964;24.022;2022-07-18T02:06:28;10.45;;;1.29;;
63983;SDS011;50182;47.964;24.022;2022-07-18T02:07:39;2.20;;;1.37;;
63983;SDS011;50182;47.964;24.022;2022-07-18T02:08:39;1.57;;;1.27;;
63983;SDS011;50182;47.964;24.022;2022-07-18T02:09:42;1.21;;;1.13;;
63983;SDS011;50182;47.964;24.022;2022-07-18T02:10:44;1.49;;;1.33;;
63983;SDS011;50182;47.964;24.022;2022-07-18T02:11:52;1.61;;;1.55;;
63983;SDS011;50182;47.964;24.022;2022-07-18T02:12:55;1.95;;;1.25;;
63983;SDS011;50182;47.964;24.022;2022-07-18T02:13:57;1.38;;;1.38;;
63983;SDS011;50182;47.964;24.022;2022-07-18T02:14:59;1.53;;;1.29;;
63983;SDS011;50182;47.964;24.022;2022-07-18T02:16:02;1.14;;;1.09;;
63983;SDS011;50182;47.964;24.022;2022-07-18T02:17:05;1.35;;;1.26;;
63983;SDS011;50182;47.964;24.022;2022-07-18T02:18:08;1.42;;;1.20;;
63983;SDS011;50182;47.964;24.022;2022-07-18T02:19:10;2.19;;;1.34;;
63983;SDS011;50182;47.964;24.022;2022-07-18T02:20:14;1.28;;;1.25;;
63983;SDS011;50182;47.964;24.022;2022-07-18T02:21:17;1.27;;;1.16;;
63983;SDS011;50182;47.964;24.022;2022-07-18T02:22:19;3.96;;;1.29;;
63983;SDS011;50182;47.964;24.022;2022-07-18T02:23:22;3.29;;;1.29;;
63983;SDS011;50182;47.964;24.022;2022-07-18T02:24:24;2.72;;;1.20;;
63983;SDS011;50182;47.964;24.022;2022-07-18T02:25:27;3.41;;;1.26;;
63983;SDS011;50182;47.964;24.022;2022-07-18T02:26:32;1.28;;;1.22;;
63983;SDS011;50182;47.964;24.022;2022-07-18T02:27:35;1.99;;;0.99;;
63983;SDS011;50182;47.964;24.022;2022-07-18T02:28:37;0.79;;;0.79;;
63983;SDS011;50182;47.964;24.022;2022-07-18T02:29:40;2.91;;;1.15;;
63983;SDS011;50182;47.964;24.022;2022-07-18T02:30:42;2.76;;;1.21;;
63983;SDS011;50182;47.964;24.022;2022-07-18T02:31:45;3.07;;;1.29;;
63983;SDS011;50182;47.964;24.022;2022-07-18T02:32:47;1.21;;;1.18;;
63983;SDS011;50182;47.964;24.022;2022-07-18T02:33:50;7.60;;;1.21;;
63983;SDS011;50182;47.964;24.022;2022-07-18T02:34:53;1.67;;;1.27;;
63983;SDS011;50182;47.964;24.022;2022-07-18T02:35:55;1.29;;;1.19;;
63983;SDS011;50182;47.964;24.022;2022-07-18T02:36:59;1.44;;;1.12;;
63983;SDS011;50182;47.964;24.022;2022-07-18T02:38:01;1.40;;;1.40;;
63983;SDS011;50182;47.964;24.022;2022-07-18T02:39:04;4.33;;;1.32;;
63983;SDS011;50182;47.964;24.022;2022-07-18T02:40:10;3.06;;;1.24;;
63983;SDS011;50182;47.964;24.022;2022-07-18T02:41:13;1.66;;;1.30;;
63983;SDS011;50182;47.964;24.022;2022-07-18T02:42:15;1.66;;;1.34;;
63983;SDS011;50182;47.964;24.022;2022-07-18T02:43:18;6.09;;;1.12;;
63983;SDS011;50182;47.964;24.022;2022-07-18T02:44:21;1.43;;;1.19;;
63983;SDS011;50182;47.964;24.022;2022-07-18T02:45:24;1.55;;;1.46;;
63983;SDS011;50182;47.964;24.022;2022-07-18T02:46:27;1.22;;;1.15;;
63983;SDS011;50182;47.964;24.022;2022-07-18T02:47:29;1.47;;;1.44;;
63983;SDS011;50182;47.964;24.022;2022-07-18T02:48:32;1.31;;;1.13;;
63983;SDS011;50182;47.964;24.022;2022-07-18T02:49:34;1.45;;;1.37;;
63983;SDS011;50182;47.964;24.022;2022-07-18T02:50:37;0.93;;;0.89;;
63983;SDS011;50182;47.964;24.022;2022-07-18T02:51:39;2.65;;;1.29;;
63983;SDS011;50182;47.964;24.022;2022-07-18T02:52:42;1.93;;;1.38;;
63983;SDS011;50182;47.964;24.022;2022-07-18T02:53:45;8.42;;;1.51;;
63983;SDS011;50182;47.964;24.022;2022-07-18T02:54:47;6.23;;;1.37;;
63983;SDS011;50182;47.964;24.022;2022-07-18T02:55:50;5.25;;;1.23;;
63983;SDS011;50182;47.964;24.022;2022-07-18T02:56:55;2.46;;;1.19;;
63983;SDS011;50182;47.964;24.022;2022-07-18T02:57:57;1.30;;;1.29;;
63983;SDS011;50182;47.964;24.022;2022-07-18T02:59:00;2.21;;;1.34;;
63983;SDS011;50182;47.964;24.022;2022-07-18T03:00:03;6.45;;;1.52;;
63983;SDS011;50182;47.964;24.022;2022-07-18T03:01:06;3.15;;;1.15;;
63983;SDS011;50182;47.964;24.022;2022-07-18T03:02:10;2.38;;;1.04;;
63983;SDS011;50182;47.964;24.022;2022-07-18T03:03:12;1.24;;;1.13;;
63983;SDS011;50182;47.964;24.022;2022-07-18T03:04:15;5.41;;;1.13;;
63983;SDS011;50182;47.964;24.022;2022-07-18T03:05:18;2.24;;;1.19;;
63983;SDS011;50182;47.964;24.022;2022-07-18T03:06:20;2.83;;;1.16;;
63983;SDS011;50182;47.964;24.022;2022-07-18T03:07:23;3.83;;;1.29;;
63983;SDS011;50182;47.964;24.022;2022-07-18T03:08:25;1.62;;;1.27;;
63983;SDS011;50182;47.964;24.022;2022-07-18T03:09:27;0.87;;;0.81;;
63983;SDS011;50182;47.964;24.022;2022-07-18T03:10:30;4.07;;;1.33;;
63983;SDS011;50182;47.964;24.022;2022-07-18T03:11:32;3.78;;;1.03;;
63983;SDS011;50182;47.964;24.022;2022-07-18T03:12:35;6.75;;;1.53;;
63983;SDS011;50182;47.964;24.022;2022-07-18T03:13:37;6.45;;;1.50;;
63983;SDS011;50182;47.964;24.022;2022-07-18T03:14:40;8.30;;;1.16;;
63983;SDS011;50182;47.964;24.022;2022-07-18T03:15:42;2.71;;;1.29;;
63983;SDS011;50182;47.964;24.022;2022-07-18T03:16:45;1.18;;;1.12;;
63983;SDS011;50182;47.964;24.022;2022-07-18T03:17:47;2.70;;;0.90;;
63983;SDS011;50182;47.964;24.022;2022-07-18T03:18:50;1.07;;;0.97;;
63983;SDS011;50182;47.964;24.022;2022-07-18T03:19:52;1.46;;;1.36;;
63983;SDS011;50182;47.964;24.022;2022-07-18T03:20:55;0.80;;;0.79;;
63983;SDS011;50182;47.964;24.022;2022-07-18T03:21:57;3.72;;;1.33;;
63983;SDS011;50182;47.964;24.022;2022-07-18T03:23:03;3.41;;;0.95;;
63983;SDS011;50182;47.964;24.022;2022-07-18T03:24:07;3.57;;;1.18;;
63983;SDS011;50182;47.964;24.022;2022-07-18T03:25:10;5.26;;;1.21;;
63983;SDS011;50182;47.964;24.022;2022-07-18T03:26:13;5.12;;;1.88;;
63983;SDS011;50182;47.964;24.022;2022-07-18T03:27:15;3.83;;;1.32;;
63983;SDS011;50182;47.964;24.022;2022-07-18T03:28:18;3.63;;;1.49;;
63983;SDS011;50182;47.964;24.022;2022-07-18T03:29:20;3.74;;;1.42;;
63983;SDS011;50182;47.964;24.022;2022-07-18T03:30:23;10.23;;;1.37;;
63983;SDS011;50182;47.964;24.022;2022-07-18T03:31:26;3.23;;;1.14;;
63983;SDS011;50182;47.964;24.022;2022-07-18T03:32:28;2.29;;;1.29;;
63983;SDS011;50182;47.964;24.022;2022-07-18T03:33:31;1.21;;;1.15;;
63983;SDS011;50182;47.964;24.022;2022-07-18T03:34:34;3.44;;;1.12;;
63983;SDS011;50182;47.964;24.022;2022-07-18T03:35:36;4.03;;;0.88;;
63983;SDS011;50182;47.964;24.022;2022-07-18T03:36:41;3.86;;;1.25;;
63983;SDS011;50182;47.964;24.022;2022-07-18T03:38:03;4.28;;;1.04;;
63983;SDS011;50182;47.964;24.022;2022-07-18T03:39:05;1.76;;;1.15;;
63983;SDS011;50182;47.964;24.022;2022-07-18T03:40:10;1.01;;;1.01;;
63983;SDS011;50182;47.964;24.022;2022-07-18T03:41:13;3.84;;;1.79;;
63983;SDS011;50182;47.964;24.022;2022-07-18T03:42:15;1.00;;;0.99;;
63983;SDS011;50182;47.964;24.022;2022-07-18T03:43:18;2.31;;;1.05;;
63983;SDS011;50182;47.964;24.022;2022-07-18T03:44:20;1.56;;;1.31;;
63983;SDS011;50182;47.964;24.022;2022-07-18T03:45:23;2.37;;;0.90;;
63983;SDS011;50182;47.964;24.022;2022-07-18T03:46:27;2.93;;;1.04;;
63983;SDS011;50182;47.964;24.022;2022-07-18T03:47:29;4.87;;;1.74;;
63983;SDS011;50182;47.964;24.022;2022-07-18T03:48:32;2.04;;;1.27;;
63983;SDS011;50182;47.964;24.022;2022-07-18T03:49:34;3.09;;;1.27;;
63983;SDS011;50182;47.964;24.022;2022-07-18T03:50:37;2.04;;;1.39;;
63983;SDS011;50182;47.964;24.022;2022-07-18T03:51:40;2.40;;;1.29;;
63983;SDS011;50182;47.964;24.022;2022-07-18T03:52:42;1.63;;;0.99;;
63983;SDS011;50182;47.964;24.022;2022-07-18T03:53:44;2.63;;;1.51;;
63983;SDS011;50182;47.964;24.022;2022-07-18T03:54:47;5.13;;;1.10;;
63983;SDS011;50182;47.964;24.022;2022-07-18T03:55:49;1.05;;;0.91;;
63983;SDS011;50182;47.964;24.022;2022-07-18T03:56:52;1.81;;;1.25;;
63983;SDS011;50182;47.964;24.022;2022-07-18T03:57:54;1.23;;;1.20;;
63983;SDS011;50182;47.964;24.022;2022-07-18T03:58:59;1.43;;;1.25;;
63983;SDS011;50182;47.964;24.022;2022-07-18T04:00:02;2.93;;;1.38;;
63983;SDS011;50182;47.964;24.022;2022-07-18T04:01:08;1.80;;;1.36;;
63983;SDS011;50182;47.964;24.022;2022-07-18T04:02:10;2.08;;;1.34;;
63983;SDS011;50182;47.964;24.022;2022-07-18T04:03:13;1.59;;;1.45;;
63983;SDS011;50182;47.964;24.022;2022-07-18T04:04:15;6.07;;;2.51;;
63983;SDS011;50182;47.964;24.022;2022-07-18T04:05:18;1.58;;;1.48;;
63983;SDS011;50182;47.964;24.022;2022-07-18T04:06:23;1.49;;;1.01;;
63983;SDS011;50182;47.964;24.022;2022-07-18T04:07:25;1.78;;;1.50;;
63983;SDS011;50182;47.964;24.022;2022-07-18T04:08:29;1.25;;;1.18;;
63983;SDS011;50182;47.964;24.022;2022-07-18T04:09:32;1.28;;;1.26;;
63983;SDS011;50182;47.964;24.022;2022-07-18T04:10:34;2.81;;;1.05;;
63983;SDS011;50182;47.964;24.022;2022-07-18T04:11:36;6.91;;;1.65;;
63983;SDS011;50182;47.964;24.022;2022-07-18T04:12:46;7.99;;;1.55;;
63983;SDS011;50182;47.964;24.022;2022-07-18T04:13:50;1.14;;;1.13;;
63983;SDS011;50182;47.964;24.022;2022-07-18T04:14:53;1.61;;;1.13;;
63983;SDS011;50182;47.964;24.022;2022-07-18T04:15:55;3.79;;;1.19;;
63983;SDS011;50182;47.964;24.022;2022-07-18T04:16:59;4.53;;;1.24;;
63983;SDS011;50182;47.964;24.022;2022-07-18T04:18:01;2.50;;;1.51;;
63983;SDS011;50182;47.964;24.022;2022-07-18T04:19:03;2.91;;;1.43;;
63983;SDS011;50182;47.964;24.022;2022-07-18T04:20:06;1.77;;;1.45;;
63983;SDS011;50182;47.964;24.022;2022-07-18T04:21:10;2.28;;;1.35;;
63983;SDS011;50182;47.964;24.022;2022-07-18T04:22:13;1.46;;;1.33;;
63983;SDS011;50182;47.964;24.022;2022-07-18T04:23:15;3.95;;;1.45;;
63983;SDS011;50182;47.964;24.022;2022-07-18T04:24:18;1.51;;;1.31;;
63983;SDS011;50182;47.964;24.022;2022-07-18T04:25:24;7.27;;;1.57;;
63983;SDS011;50182;47.964;24.022;2022-07-18T04:26:30;2.02;;;1.41;;
63983;SDS011;50182;47.964;24.022;2022-07-18T04:27:33;4.72;;;1.43;;
63983;SDS011;50182;47.964;24.022;2022-07-18T04:28:35;16.38;;;1.23;;
63983;SDS011;50182;47.964;24.022;2022-07-18T04:29:38;1.39;;;1.37;;
63983;SDS011;50182;47.964;24.022;2022-07-18T04:30:41;1.14;;;1.01;;
63983;SDS011;50182;47.964;24.022;2022-07-18T04:31:44;11.25;;;1.26;;
63983;SDS011;50182;47.964;24.022;2022-07-18T04:32:47;6.25;;;1.29;;
63983;SDS011;50182;47.964;24.022;2022-07-18T04:33:50;1.84;;;1.22;;
63983;SDS011;50182;47.964;24.022;2022-07-18T04:34:53;4.13;;;1.13;;
63983;SDS011;50182;47.964;24.022;2022-07-18T04:35:55;1.72;;;1.65;;
63983;SDS011;50182;47.964;24.022;2022-07-18T04:36:58;7.83;;;1.74;;
63983;SDS011;50182;47.964;24.022;2022-07-18T04:38:00;2.15;;;1.28;;
63983;SDS011;50182;47.964;24.022;2022-07-18T04:39:03;4.11;;;1.27;;
63983;SDS011;50182;47.964;24.022;2022-07-18T04:40:07;3.13;;;1.20;;
63983;SDS011;50182;47.964;24.022;2022-07-18T04:41:11;3.37;;;1.44;;
63983;SDS011;50182;47.964;24.022;2022-07-18T04:42:14;2.82;;;1.91;;
63983;SDS011;50182;47.964;24.022;2022-07-18T04:43:16;1.37;;;1.27;;
63983;SDS011;50182;47.964;24.022;2022-07-18T04:44:19;3.95;;;1.86;;
63983;SDS011;50182;47.964;24.022;2022-07-18T04:45:21;2.40;;;2.13;;
63983;SDS011;50182;47.964;24.022;2022-07-18T04:46:25;3.84;;;2.17;;
63983;SDS011;50182;47.964;24.022;2022-07-18T04:47:27;4.11;;;3.02;;
63983;SDS011;50182;47.964;24.022;2022-07-18T04:48:30;7.07;;;2.19;;
63983;SDS011;50182;47.964;24.022;2022-07-18T04:49:33;2.34;;;1.71;;
63983;SDS011;50182;47.964;24.022;2022-07-18T04:50:35;3.68;;;3.39;;
63983;SDS011;50182;47.964;24.022;2022-07-18T04:51:38;6.73;;;4.78;;
63983;SDS011;50182;47.964;24.022;2022-07-18T04:52:42;7.67;;;3.35;;
63983;SDS011;50182;47.964;24.022;2022-07-18T04:53:45;3.89;;;3.59;;
63983;SDS011;50182;47.964;24.022;2022-07-18T04:54:48;3.47;;;2.90;;
63983;SDS011;50182;47.964;24.022;2022-07-18T04:55:51;6.14;;;3.09;;
63983;SDS011;50182;47.964;24.022;2022-07-18T04:56:53;4.26;;;2.72;;
63983;SDS011;50182;47.964;24.022;2022-07-18T04:57:56;3.15;;;2.67;;
63983;SDS011;50182;47.964;24.022;2022-07-18T04:58:59;2.87;;;2.62;;
63983;SDS011;50182;47.964;24.022;2022-07-18T05:00:07;2.86;;;2.66;;
63983;SDS011;50182;47.964;24.022;2022-07-18T05:01:07;4.67;;;2.32;;
63983;SDS011;50182;47.964;24.022;2022-07-18T05:02:09;2.17;;;2.04;;
63983;SDS011;50182;47.964;24.022;2022-07-18T05:03:13;2.66;;;2.50;;
63983;SDS011;50182;47.964;24.022;2022-07-18T05:04:16;12.23;;;2.26;;
63983;SDS011;50182;47.964;24.022;2022-07-18T05:05:19;4.19;;;1.86;;
63983;SDS011;50182;47.964;24.022;2022-07-18T05:06:23;4.19;;;1.98;;
63983;SDS011;50182;47.964;24.022;2022-07-18T05:07:26;1.93;;;1.83;;
63983;SDS011;50182;47.964;24.022;2022-07-18T05:08:28;2.14;;;1.97;;
63983;SDS011;50182;47.964;24.022;2022-07-18T05:09:31;2.58;;;1.94;;
63983;SDS011;50182;47.964;24.022;2022-07-18T05:10:34;2.83;;;1.72;;
63983;SDS011;50182;47.964;24.022;2022-07-18T05:11:36;3.30;;;1.71;;
63983;SDS011;50182;47.964;24.022;2022-07-18T05:12:39;1.95;;;1.79;;
63983;SDS011;50182;47.964;24.022;2022-07-18T05:13:43;3.78;;;1.75;;
63983;SDS011;50182;47.964;24.022;2022-07-18T05:14:46;2.49;;;1.70;;
63983;SDS011;50182;47.964;24.022;2022-07-18T05:15:48;1.47;;;1.43;;
63983;SDS011;50182;47.964;24.022;2022-07-18T05:16:51;3.17;;;1.89;;
63983;SDS011;50182;47.964;24.022;2022-07-18T05:17:53;2.41;;;1.50;;
63983;SDS011;50182;47.964;24.022;2022-07-18T05:18:56;1.86;;;1.29;;
63983;SDS011;50182;47.964;24.022;2022-07-18T05:19:59;1.65;;;1.55;;
63983;SDS011;50182;47.964;24.022;2022-07-18T05:21:01;1.55;;;1.45;;
63983;SDS011;50182;47.964;24.022;2022-07-18T05:22:04;2.96;;;1.85;;
63983;SDS011;50182;47.964;24.022;2022-07-18T05:23:07;5.02;;;1.53;;
63983;SDS011;50182;47.964;24.022;2022-07-18T05:24:10;1.29;;;1.27;;
63983;SDS011;50182;47.964;24.022;2022-07-18T05:25:13;1.52;;;1.44;;
63983;SDS011;50182;47.964;24.022;2022-07-18T05:26:15;2.92;;;1.26;;
63983;SDS011;50182;47.964;24.022;2022-07-18T05:27:18;1.34;;;1.34;;
63983;SDS011;50182;47.964;24.022;2022-07-18T05:28:22;1.33;;;1.33;;
63983;SDS011;50182;47.964;24.022;2022-07-18T05:29:24;5.41;;;1.76;;
63983;SDS011;50182;47.964;24.022;2022-07-18T05:30:27;1.91;;;1.56;;
63983;SDS011;50182;47.964;24.022;2022-07-18T05:31:30;1.61;;;1.59;;
63983;SDS011;50182;47.964;24.022;2022-07-18T05:32:33;2.42;;;2.02;;
63983;SDS011;50182;47.964;24.022;2022-07-18T05:33:36;4.57;;;2.19;;
63983;SDS011;50182;47.964;24.022;2022-07-18T05:34:38;4.19;;;1.80;;
63983;SDS011;50182;47.964;24.022;2022-07-18T05:35:41;2.01;;;1.82;;
63983;SDS011;50182;47.964;24.022;2022-07-18T05:36:44;2.61;;;1.63;;
63983;SDS011;50182;47.964;24.022;2022-07-18T05:37:46;7.67;;;1.73;;
63983;SDS011;50182;47.964;24.022;2022-07-18T05:38:49;7.12;;;3.53;;
63983;SDS011;50182;47.964;24.022;2022-07-18T05:39:51;5.91;;;4.64;;
63983;SDS011;50182;47.964;24.022;2022-07-18T05:40:54;7.98;;;4.60;;
63983;SDS011;50182;47.964;24.022;2022-07-18T05:41:56;8.58;;;5.85;;
63983;SDS011;50182;47.964;24.022;2022-07-18T05:43:00;12.21;;;7.58;;
63983;SDS011;50182;47.964;24.022;2022-07-18T05:44:02;11.47;;;6.83;;
63983;SDS011;50182;47.964;24.022;2022-07-18T05:45:06;7.86;;;6.16;;
63983;SDS011;50182;47.964;24.022;2022-07-18T05:46:10;8.98;;;6.39;;
63983;SDS011;50182;47.964;24.022;2022-07-18T05:47:13;9.30;;;6.49;;
63983;SDS011;50182;47.964;24.022;2022-07-18T05:48:16;9.61;;;5.44;;
63983;SDS011;50182;47.964;24.022;2022-07-18T05:49:19;10.06;;;5.67;;
63983;SDS011;50182;47.964;24.022;2022-07-18T05:50:23;7.48;;;5.35;;
63983;SDS011;50182;47.964;24.022;2022-07-18T05:51:26;9.91;;;6.39;;
63983;SDS011;50182;47.964;24.022;2022-07-18T05:52:28;9.21;;;6.48;;
63983;SDS011;50182;47.964;24.022;2022-07-18T05:53:31;10.61;;;6.49;;
63983;SDS011;50182;47.964;24.022;2022-07-18T05:54:33;6.41;;;5.78;;
63983;SDS011;50182;47.964;24.022;2022-07-18T05:55:36;12.67;;;5.93;;
63983;SDS011;50182;47.964;24.022;2022-07-18T05:56:38;7.56;;;5.36;;
63983;SDS011;50182;47.964;24.022;2022-07-18T05:57:41;13.44;;;6.05;;
63983;SDS011;50182;47.964;24.022;2022-07-18T05:58:43;9.68;;;5.77;;
63983;SDS011;50182;47.964;24.022;2022-07-18T05:59:46;9.01;;;5.17;;
63983;SDS011;50182;47.964;24.022;2022-07-18T06:00:49;9.81;;;5.59;;
63983;SDS011;50182;47.964;24.022;2022-07-18T06:01:52;7.51;;;5.35;;
63983;SDS011;50182;47.964;24.022;2022-07-18T06:02:56;9.64;;;5.79;;
63983;SDS011;50182;47.964;24.022;2022-07-18T06:03:58;14.32;;;5.07;;
63983;SDS011;50182;47.964;24.022;2022-07-18T06:05:01;11.45;;;5.54;;
63983;SDS011;50182;47.964;24.022;2022-07-18T06:06:04;9.66;;;5.36;;
63983;SDS011;50182;47.964;24.022;2022-07-18T06:07:07;7.89;;;4.62;;
63983;SDS011;50182;47.964;24.022;2022-07-18T06:08:09;9.56;;;4.89;;
63983;SDS011;50182;47.964;24.022;2022-07-18T06:09:12;16.39;;;4.89;;
63983;SDS011;50182;47.964;24.022;2022-07-18T06:10:16;6.77;;;4.79;;
63983;SDS011;50182;47.964;24.022;2022-07-18T06:11:19;6.76;;;4.46;;
63983;SDS011;50182;47.964;24.022;2022-07-18T06:12:22;9.46;;;4.52;;
63983;SDS011;50182;47.964;24.022;2022-07-18T06:13:25;11.20;;;5.59;;